createdAt,value
2016-08-18T00:00:34.108Z,0
2016-08-18T00:01:34.154Z,0
2016-08-18T00:02:34.136Z,0
2016-08-18T00:03:34.140Z,0
2016-08-18T00:04:34.136Z,0
2016-08-18T00:05:34.866Z,0
2016-08-18T00:06:34.173Z,0
2016-08-18T00:07:34.167Z,0
2016-08-18T00:08:34.173Z,0
2016-08-18T00:09:34.189Z,0
2016-08-18T00:10:34.196Z,0
2016-08-18T00:11:34.167Z,0
2016-08-18T00:12:34.897Z,0
2016-08-18T00:13:34.186Z,0
2016-08-18T00:14:34.238Z,0
2016-08-18T00:15:34.203Z,0
2016-08-18T00:16:34.232Z,0
2016-08-18T00:17:34.252Z,0
2016-08-18T00:18:34.914Z,0
2016-08-18T00:19:34.237Z,0
2016-08-18T00:20:34.237Z,0
2016-08-18T00:21:34.253Z,0
2016-08-18T00:22:34.273Z,0
2016-08-18T00:23:34.288Z,0
2016-08-18T00:24:34.313Z,0
2016-08-18T00:25:34.282Z,0
2016-08-18T00:26:34.288Z,0
2016-08-18T00:27:35.027Z,0
2016-08-18T00:28:34.327Z,0
2016-08-18T00:29:34.293Z,0
2016-08-18T00:30:34.334Z,0
2016-08-18T00:31:34.316Z,0
2016-08-18T00:32:34.318Z,0
2016-08-18T00:33:34.341Z,0
2016-08-18T00:34:34.345Z,0
2016-08-18T00:35:34.349Z,0
2016-08-18T00:36:34.356Z,0
2016-08-18T00:37:34.365Z,0
2016-08-18T00:38:34.353Z,0
2016-08-18T00:39:34.411Z,0
2016-08-18T00:40:34.388Z,0
2016-08-18T00:41:34.403Z,0
2016-08-18T00:42:34.412Z,0
2016-08-18T00:43:35.161Z,0
2016-08-18T00:44:34.620Z,0
2016-08-18T00:45:34.446Z,0
2016-08-18T00:46:34.441Z,0
2016-08-18T00:47:34.433Z,0
2016-08-18T00:48:34.426Z,0
2016-08-18T00:49:34.451Z,0
2016-08-18T00:50:34.469Z,0
2016-08-18T00:51:34.476Z,0
2016-08-18T00:52:34.490Z,0
2016-08-18T00:53:34.502Z,0
2016-08-18T00:54:34.495Z,0
2016-08-18T00:55:34.525Z,0
2016-08-18T00:56:34.532Z,0
2016-08-18T00:57:34.496Z,0
2016-08-18T00:58:34.515Z,0
2016-08-18T00:59:34.528Z,0
2016-08-18T01:00:34.551Z,0
2016-08-18T01:01:34.555Z,0
2016-08-18T01:02:34.564Z,0
2016-08-18T01:03:34.542Z,0
2016-08-18T01:04:34.570Z,0
2016-08-18T01:05:34.560Z,0
2016-08-18T01:06:34.544Z,0
2016-08-18T01:07:34.591Z,0
2016-08-18T01:08:34.583Z,0
2016-08-18T01:09:34.602Z,0
2016-08-18T01:10:34.596Z,0
2016-08-18T01:11:34.646Z,0
2016-08-18T01:12:34.615Z,0
2016-08-18T01:13:34.611Z,0
2016-08-18T01:14:34.628Z,0
2016-08-18T01:15:34.636Z,0
2016-08-18T01:16:34.610Z,0
2016-08-18T01:17:34.657Z,0
2016-08-18T01:18:34.652Z,0
2016-08-18T01:19:34.651Z,0
2016-08-18T01:20:34.680Z,0
2016-08-18T01:21:34.685Z,0
2016-08-18T01:22:34.676Z,0
2016-08-18T01:23:34.687Z,0
2016-08-18T01:24:34.688Z,0
2016-08-18T01:25:34.681Z,0
2016-08-18T01:26:35.423Z,0
2016-08-18T01:27:34.718Z,0
2016-08-18T01:28:34.734Z,0
2016-08-18T01:29:34.742Z,0
2016-08-18T01:30:34.741Z,0
2016-08-18T01:31:34.736Z,0
2016-08-18T01:32:34.740Z,0
2016-08-18T01:33:34.753Z,0
2016-08-18T01:34:34.763Z,0
2016-08-18T01:35:34.755Z,0
2016-08-18T01:36:34.750Z,0
2016-08-18T01:37:34.786Z,0
2016-08-18T01:38:34.802Z,0
2016-08-18T01:39:34.786Z,0
2016-08-18T01:40:34.798Z,0
2016-08-18T01:41:34.828Z,0
2016-08-18T01:42:34.811Z,0
2016-08-18T01:43:34.805Z,0
2016-08-18T01:44:36.640Z,0
2016-08-18T01:45:34.840Z,0
2016-08-18T01:46:34.851Z,0
2016-08-18T01:47:34.835Z,0
2016-08-18T01:48:34.847Z,0
2016-08-18T01:49:34.875Z,0
2016-08-18T01:50:34.865Z,0
2016-08-18T01:51:34.864Z,0
2016-08-18T01:52:34.892Z,0
2016-08-18T01:53:34.886Z,0
2016-08-18T01:54:34.908Z,0
2016-08-18T01:55:34.907Z,0
2016-08-18T01:56:34.922Z,0
2016-08-18T01:57:34.915Z,0
2016-08-18T01:58:34.909Z,0
2016-08-18T01:59:34.931Z,0
2016-08-18T02:00:34.941Z,0
2016-08-18T02:01:34.933Z,0
2016-08-18T02:02:34.935Z,0
2016-08-18T02:03:34.925Z,0
2016-08-18T02:04:34.965Z,0
2016-08-18T02:05:34.959Z,0
2016-08-18T02:06:34.955Z,0
2016-08-18T02:07:35.002Z,0
2016-08-18T02:08:34.987Z,0
2016-08-18T02:09:34.993Z,0
2016-08-18T02:10:34.970Z,0
2016-08-18T02:11:35.007Z,0
2016-08-18T02:12:34.995Z,0
2016-08-18T02:13:35.019Z,0
2016-08-18T02:14:35.052Z,0
2016-08-18T02:15:35.041Z,0
2016-08-18T02:16:35.030Z,0
2016-08-18T02:17:35.055Z,0
2016-08-18T02:18:35.063Z,0
2016-08-18T02:19:35.069Z,0
2016-08-18T02:20:35.060Z,0
2016-08-18T02:21:35.069Z,0
2016-08-18T02:22:35.062Z,0
2016-08-18T02:23:35.089Z,0
2016-08-18T02:24:35.106Z,0
2016-08-18T02:25:35.114Z,0
2016-08-18T02:26:35.127Z,0
2016-08-18T02:27:35.101Z,0
2016-08-18T02:28:35.098Z,0
2016-08-18T02:29:35.110Z,0
2016-08-18T02:30:35.134Z,0
2016-08-18T02:31:35.137Z,0
2016-08-18T02:32:35.129Z,0
2016-08-18T02:33:35.132Z,0
2016-08-18T02:34:35.160Z,0
2016-08-18T02:35:35.176Z,0
2016-08-18T02:36:35.167Z,0
2016-08-18T02:37:35.180Z,0
2016-08-18T02:38:35.198Z,0
2016-08-18T02:39:35.183Z,0
2016-08-18T02:40:35.205Z,0
2016-08-18T02:41:35.199Z,0
2016-08-18T02:42:35.247Z,0
2016-08-18T02:43:35.192Z,0
2016-08-18T02:44:36.059Z,0
2016-08-18T02:45:35.202Z,0
2016-08-18T02:46:35.224Z,0
2016-08-18T02:47:35.236Z,0
2016-08-18T02:48:35.255Z,0
2016-08-18T02:49:35.264Z,0
2016-08-18T02:50:35.245Z,0
2016-08-18T02:51:35.278Z,0
2016-08-18T02:52:35.275Z,0
2016-08-18T02:53:35.269Z,0
2016-08-18T02:54:35.283Z,0
2016-08-18T02:55:35.287Z,0
2016-08-18T02:56:35.290Z,0
2016-08-18T02:57:35.309Z,0
2016-08-18T02:58:35.302Z,0
2016-08-18T02:59:35.321Z,0
2016-08-18T03:00:35.312Z,0
2016-08-18T03:01:35.340Z,0
2016-08-18T03:02:35.312Z,0
2016-08-18T03:03:35.336Z,0
2016-08-18T03:04:35.342Z,0
2016-08-18T03:05:35.371Z,0
2016-08-18T03:06:35.347Z,0
2016-08-18T03:07:35.356Z,0
2016-08-18T03:08:35.361Z,0
2016-08-18T03:09:35.375Z,0
2016-08-18T03:10:35.403Z,0
2016-08-18T03:11:35.416Z,0
2016-08-18T03:12:35.416Z,0
2016-08-18T03:13:35.397Z,0
2016-08-18T03:14:35.425Z,0
2016-08-18T03:15:35.425Z,0
2016-08-18T03:16:35.429Z,0
2016-08-18T03:17:35.415Z,0
2016-08-18T03:18:35.454Z,0
2016-08-18T03:19:35.453Z,0
2016-08-18T03:20:35.447Z,0
2016-08-18T03:21:35.446Z,0
2016-08-18T03:22:35.448Z,0
2016-08-18T03:23:35.474Z,0
2016-08-18T03:24:35.489Z,0
2016-08-18T03:25:35.491Z,0
2016-08-18T03:26:35.483Z,0
2016-08-18T03:27:36.205Z,0
2016-08-18T03:28:35.508Z,0
2016-08-18T03:29:35.515Z,0
2016-08-18T03:30:35.515Z,0
2016-08-18T03:31:35.500Z,0
2016-08-18T03:32:35.541Z,0
2016-08-18T03:33:35.534Z,0
2016-08-18T03:34:35.540Z,0
2016-08-18T03:35:35.544Z,0
2016-08-18T03:36:35.532Z,0
2016-08-18T03:37:35.583Z,0
2016-08-18T03:38:35.559Z,0
2016-08-18T03:39:35.594Z,0
2016-08-18T03:40:35.582Z,0
2016-08-18T03:41:35.591Z,0
2016-08-18T03:42:35.591Z,0
2016-08-18T03:43:35.619Z,0
2016-08-18T03:44:35.614Z,0
2016-08-18T03:45:35.612Z,0
2016-08-18T03:46:35.616Z,0
2016-08-18T03:47:35.603Z,0
2016-08-18T03:48:35.608Z,0
2016-08-18T03:49:35.618Z,0
2016-08-18T03:50:35.666Z,0
2016-08-18T03:51:35.648Z,0
2016-08-18T03:52:35.665Z,0
2016-08-18T03:53:35.648Z,0
2016-08-18T03:54:35.666Z,0
2016-08-18T03:55:35.672Z,0
2016-08-18T03:56:35.661Z,0
2016-08-18T03:57:35.683Z,0
2016-08-18T03:58:35.708Z,0
2016-08-18T03:59:35.709Z,0
2016-08-18T04:00:35.705Z,0
2016-08-18T04:01:35.729Z,0
2016-08-18T04:02:35.710Z,0
2016-08-18T04:03:35.721Z,0
2016-08-18T04:04:35.727Z,0
2016-08-18T04:05:35.724Z,0
2016-08-18T04:06:35.731Z,0
2016-08-18T04:07:35.751Z,0
2016-08-18T04:08:35.787Z,0
2016-08-18T04:09:35.757Z,0
2016-08-18T04:10:35.808Z,0
2016-08-18T04:11:35.781Z,0
2016-08-18T04:12:35.777Z,0
2016-08-18T04:13:35.777Z,0
2016-08-18T04:14:35.791Z,0
2016-08-18T04:15:36.494Z,0
2016-08-18T04:16:35.813Z,0
2016-08-18T04:17:35.840Z,0
2016-08-18T04:18:35.816Z,0
2016-08-18T04:19:35.828Z,0
2016-08-18T04:20:35.846Z,0
2016-08-18T04:21:35.882Z,0
2016-08-18T04:22:35.855Z,0
2016-08-18T04:23:35.879Z,0
2016-08-18T04:24:35.850Z,0
2016-08-18T04:25:35.878Z,0
2016-08-18T04:26:35.870Z,0
2016-08-18T04:27:35.877Z,0
2016-08-18T04:28:35.879Z,0
2016-08-18T04:29:35.887Z,4
2016-08-18T04:30:35.895Z,4
2016-08-18T04:31:35.904Z,4
2016-08-18T04:32:35.899Z,4
2016-08-18T04:33:35.914Z,4
2016-08-18T04:34:35.934Z,4
2016-08-18T04:35:35.942Z,4
2016-08-18T04:36:35.938Z,4
2016-08-18T04:37:35.950Z,0
2016-08-18T04:38:35.950Z,0
2016-08-18T04:39:35.980Z,0
2016-08-18T04:40:35.952Z,0
2016-08-18T04:41:35.954Z,0
2016-08-18T04:42:35.990Z,4
2016-08-18T04:43:35.996Z,4
2016-08-18T04:44:36.002Z,4
2016-08-18T04:45:35.996Z,4
2016-08-18T04:46:36.013Z,4
2016-08-18T04:47:36.018Z,0
2016-08-18T04:48:36.032Z,4
2016-08-18T04:49:36.043Z,4
2016-08-18T04:50:36.040Z,4
2016-08-18T04:51:36.041Z,4
2016-08-18T04:52:36.031Z,4
2016-08-18T04:53:36.073Z,4
2016-08-18T04:54:36.057Z,4
2016-08-18T04:55:36.076Z,4
2016-08-18T04:56:36.101Z,4
2016-08-18T04:57:36.076Z,4
2016-08-18T04:58:36.085Z,8
2016-08-18T04:59:36.076Z,4
2016-08-18T05:00:36.101Z,8
2016-08-18T05:01:36.114Z,8
2016-08-18T05:02:36.107Z,4
2016-08-18T05:03:36.145Z,8
2016-08-18T05:04:36.116Z,8
2016-08-18T05:05:36.152Z,8
2016-08-18T05:06:36.139Z,8
2016-08-18T05:07:36.146Z,8
2016-08-18T05:08:36.169Z,8
2016-08-18T05:09:36.143Z,8
2016-08-18T05:10:36.178Z,8
2016-08-18T05:11:36.193Z,8
2016-08-18T05:12:36.175Z,4
2016-08-18T05:13:36.196Z,8
2016-08-18T05:14:36.222Z,8
2016-08-18T05:15:36.212Z,8
2016-08-18T05:16:36.206Z,8
2016-08-18T05:17:36.277Z,8
2016-08-18T05:18:36.214Z,8
2016-08-18T05:19:36.234Z,8
2016-08-18T05:20:36.206Z,8
2016-08-18T05:21:36.229Z,4
2016-08-18T05:22:36.269Z,4
2016-08-18T05:23:36.246Z,8
2016-08-18T05:24:36.272Z,8
2016-08-18T05:25:36.272Z,8
2016-08-18T05:26:36.254Z,4
2016-08-18T05:27:36.280Z,4
2016-08-18T05:28:36.286Z,8
2016-08-18T05:29:36.309Z,8
2016-08-18T05:30:36.297Z,8
2016-08-18T05:31:36.307Z,8
2016-08-18T05:32:36.316Z,8
2016-08-18T05:33:36.312Z,8
2016-08-18T05:34:36.304Z,8
2016-08-18T05:35:36.307Z,8
2016-08-18T05:36:36.322Z,8
2016-08-18T05:37:36.339Z,8
2016-08-18T05:38:36.376Z,8
2016-08-18T05:39:36.374Z,8
2016-08-18T05:40:36.341Z,4
2016-08-18T05:41:36.370Z,8
2016-08-18T05:42:36.380Z,8
2016-08-18T05:43:36.385Z,8
2016-08-18T05:44:36.407Z,8
2016-08-18T05:45:36.515Z,8
2016-08-18T05:46:36.411Z,8
2016-08-18T05:47:36.426Z,8
2016-08-18T05:48:36.420Z,12
2016-08-18T05:49:36.412Z,8
2016-08-18T05:50:36.435Z,12
2016-08-18T05:51:36.412Z,12
2016-08-18T05:52:36.479Z,12
2016-08-18T05:53:36.428Z,12
2016-08-18T05:54:36.674Z,16
2016-08-18T05:55:37.153Z,12
2016-08-18T05:56:36.502Z,8
2016-08-18T05:57:36.469Z,12
2016-08-18T05:58:36.482Z,8
2016-08-18T05:59:36.482Z,8
2016-08-18T06:00:36.508Z,8
2016-08-18T06:01:36.484Z,8
2016-08-18T06:02:36.528Z,12
2016-08-18T06:03:36.535Z,12
2016-08-18T06:04:36.510Z,12
2016-08-18T06:05:36.547Z,16
2016-08-18T06:06:36.526Z,16
2016-08-18T06:07:36.573Z,16
2016-08-18T06:08:36.559Z,16
2016-08-18T06:09:36.584Z,16
2016-08-18T06:10:36.564Z,16
2016-08-18T06:11:36.570Z,16
2016-08-18T06:12:36.571Z,16
2016-08-18T06:13:36.582Z,12
2016-08-18T06:14:36.582Z,12
2016-08-18T06:15:36.576Z,16
2016-08-18T06:16:36.602Z,16
2016-08-18T06:17:36.610Z,16
2016-08-18T06:18:36.635Z,16
2016-08-18T06:19:36.654Z,20
2016-08-18T06:20:36.604Z,20
2016-08-18T06:21:36.636Z,16
2016-08-18T06:22:36.664Z,16
2016-08-18T06:23:36.716Z,16
2016-08-18T06:24:36.678Z,16
2016-08-18T06:25:37.128Z,20
2016-08-18T06:26:36.673Z,16
2016-08-18T06:27:36.680Z,24
2016-08-18T06:28:36.685Z,20
2016-08-18T06:29:36.690Z,20
2016-08-18T06:30:36.678Z,24
2016-08-18T06:31:36.716Z,24
2016-08-18T06:32:36.726Z,24
2016-08-18T06:33:36.713Z,24
2016-08-18T06:34:36.743Z,20
2016-08-18T06:35:36.729Z,20
2016-08-18T06:36:36.747Z,24
2016-08-18T06:37:37.477Z,24
2016-08-18T06:38:36.771Z,20
2016-08-18T06:39:36.748Z,20
2016-08-18T06:40:36.818Z,16
2016-08-18T06:41:36.772Z,16
2016-08-18T06:42:36.819Z,20
2016-08-18T06:43:36.867Z,16
2016-08-18T06:44:36.823Z,16
2016-08-18T06:45:36.859Z,16
2016-08-18T06:46:36.824Z,12
2016-08-18T06:47:36.834Z,16
2016-08-18T06:48:36.836Z,12
2016-08-18T06:49:36.842Z,12
2016-08-18T06:50:36.845Z,12
2016-08-18T06:51:36.876Z,12
2016-08-18T06:52:36.845Z,12
2016-08-18T06:53:36.860Z,12
2016-08-18T06:54:36.891Z,12
2016-08-18T06:55:36.886Z,12
2016-08-18T06:56:36.906Z,12
2016-08-18T06:57:36.875Z,12
2016-08-18T06:58:36.919Z,12
2016-08-18T06:59:36.898Z,12
2016-08-18T07:00:36.932Z,12
2016-08-18T07:01:36.936Z,16
2016-08-18T07:02:36.961Z,12
2016-08-18T07:03:37.627Z,16
2016-08-18T07:04:36.926Z,16
2016-08-18T07:05:36.964Z,16
2016-08-18T07:06:36.981Z,20
2016-08-18T07:07:36.990Z,20
2016-08-18T07:08:36.986Z,20
2016-08-18T07:09:37.005Z,24
2016-08-18T07:10:37.019Z,20
2016-08-18T07:11:37.721Z,20
2016-08-18T07:12:37.003Z,20
2016-08-18T07:13:37.018Z,16
2016-08-18T07:14:37.039Z,20
2016-08-18T07:15:37.036Z,16
2016-08-18T07:16:37.067Z,16
2016-08-18T07:17:37.143Z,20
2016-08-18T07:18:37.049Z,20
2016-08-18T07:19:37.093Z,20
2016-08-18T07:20:37.104Z,16
2016-08-18T07:21:37.109Z,16
2016-08-18T07:22:37.787Z,20
2016-08-18T07:23:37.100Z,20
2016-08-18T07:24:37.114Z,20
2016-08-18T07:25:37.102Z,20
2016-08-18T07:26:37.123Z,16
2016-08-18T07:27:37.148Z,20
2016-08-18T07:28:37.121Z,16
2016-08-18T07:29:37.142Z,16
2016-08-18T07:30:37.165Z,24
2016-08-18T07:31:37.187Z,20
2016-08-18T07:32:37.158Z,20
2016-08-18T07:33:37.193Z,20
2016-08-18T07:34:37.166Z,20
2016-08-18T07:35:37.174Z,24
2016-08-18T07:36:37.195Z,24
2016-08-18T07:37:37.212Z,20
2016-08-18T07:38:37.251Z,24
2016-08-18T07:39:37.217Z,24
2016-08-18T07:40:41.618Z,24
2016-08-18T07:41:37.227Z,28
2016-08-18T07:42:37.250Z,28
2016-08-18T07:43:37.252Z,28
2016-08-18T07:44:37.248Z,32
2016-08-18T07:45:37.347Z,32
2016-08-18T07:46:37.285Z,28
2016-08-18T07:47:37.270Z,32
2016-08-18T07:48:37.296Z,24
2016-08-18T07:49:37.286Z,24
2016-08-18T07:50:37.309Z,28
2016-08-18T07:51:37.327Z,28
2016-08-18T07:52:38.048Z,28
2016-08-18T07:53:37.334Z,28
2016-08-18T07:54:37.316Z,28
2016-08-18T07:55:37.330Z,28
2016-08-18T07:56:37.341Z,28
2016-08-18T07:57:37.387Z,24
2016-08-18T07:58:37.358Z,24
2016-08-18T07:59:37.370Z,32
2016-08-18T08:00:37.362Z,36
2016-08-18T08:01:37.390Z,32
2016-08-18T08:02:37.402Z,32
2016-08-18T08:03:37.421Z,28
2016-08-18T08:04:37.403Z,32
2016-08-18T08:05:37.400Z,32
2016-08-18T08:06:37.444Z,28
2016-08-18T08:07:37.428Z,24
2016-08-18T08:08:37.535Z,24
2016-08-18T08:09:37.445Z,28
2016-08-18T08:10:37.465Z,28
2016-08-18T08:11:37.480Z,28
2016-08-18T08:12:37.488Z,32
2016-08-18T08:13:37.509Z,28
2016-08-18T08:14:37.482Z,24
2016-08-18T08:15:37.491Z,24
2016-08-18T08:16:37.509Z,28
2016-08-18T08:17:37.516Z,24
2016-08-18T08:18:37.501Z,24
2016-08-18T08:19:37.549Z,20
2016-08-18T08:20:37.552Z,28
2016-08-18T08:21:37.580Z,20
2016-08-18T08:22:37.575Z,24
2016-08-18T08:23:38.282Z,20
2016-08-18T08:24:37.539Z,24
2016-08-18T08:25:37.578Z,32
2016-08-18T08:26:37.611Z,32
2016-08-18T08:27:37.602Z,24
2016-08-18T08:28:37.597Z,20
2016-08-18T08:29:37.653Z,24
2016-08-18T08:30:38.056Z,32
2016-08-18T08:31:37.613Z,32
2016-08-18T08:32:37.648Z,32
2016-08-18T08:33:37.669Z,32
2016-08-18T08:34:37.686Z,32
2016-08-18T08:35:39.062Z,32
2016-08-18T08:36:38.925Z,32
2016-08-18T08:37:37.675Z,36
2016-08-18T08:38:37.912Z,36
2016-08-18T08:39:37.793Z,36
2016-08-18T08:40:40.296Z,36
2016-08-18T08:41:37.820Z,36
2016-08-18T08:42:37.726Z,40
2016-08-18T08:43:38.476Z,36
2016-08-18T08:44:38.227Z,36
2016-08-18T08:45:38.223Z,36
2016-08-18T08:46:38.119Z,36
2016-08-18T08:47:37.763Z,24
2016-08-18T08:48:37.744Z,24
2016-08-18T08:49:37.769Z,16
2016-08-18T08:50:37.785Z,16
2016-08-18T08:51:37.792Z,20
2016-08-18T08:52:37.963Z,32
2016-08-18T08:53:37.828Z,40
2016-08-18T08:54:37.809Z,40
2016-08-18T08:55:37.812Z,40
2016-08-18T08:56:37.826Z,40
2016-08-18T08:57:37.835Z,40
2016-08-18T08:58:38.548Z,32
2016-08-18T08:59:37.835Z,24
2016-08-18T09:00:37.862Z,36
2016-08-18T09:01:37.878Z,32
2016-08-18T09:02:37.862Z,40
2016-08-18T09:03:38.029Z,44
2016-08-18T09:04:37.879Z,40
2016-08-18T09:05:38.814Z,40
2016-08-18T09:06:37.945Z,40
2016-08-18T09:07:37.931Z,28
2016-08-18T09:08:37.917Z,44
2016-08-18T09:09:37.920Z,44
2016-08-18T09:10:37.923Z,40
2016-08-18T09:11:37.970Z,36
2016-08-18T09:12:37.954Z,40
2016-08-18T09:13:37.962Z,40
2016-08-18T09:14:37.984Z,40
2016-08-18T09:15:37.976Z,44
2016-08-18T09:16:37.974Z,44
2016-08-18T09:17:37.983Z,48
2016-08-18T09:18:37.993Z,48
2016-08-18T09:19:37.990Z,52
2016-08-18T09:20:38.052Z,44
2016-08-18T09:21:38.036Z,44
2016-08-18T09:22:38.734Z,48
2016-08-18T09:23:38.063Z,52
2016-08-18T09:24:38.056Z,52
2016-08-18T09:25:38.075Z,52
2016-08-18T09:26:38.058Z,52
2016-08-18T09:27:38.067Z,44
2016-08-18T09:28:38.071Z,52
2016-08-18T09:29:38.110Z,32
2016-08-18T09:30:38.112Z,44
2016-08-18T09:31:38.117Z,48
2016-08-18T09:32:38.178Z,28
2016-08-18T09:33:38.130Z,32
2016-08-18T09:34:38.135Z,28
2016-08-18T09:35:39.609Z,28
2016-08-18T09:36:38.132Z,24
2016-08-18T09:37:38.165Z,28
2016-08-18T09:38:38.191Z,24
2016-08-18T09:39:38.179Z,28
2016-08-18T09:40:38.176Z,32
2016-08-18T09:41:38.192Z,32
2016-08-18T09:42:38.196Z,40
2016-08-18T09:43:38.215Z,44
2016-08-18T09:44:38.285Z,28
2016-08-18T09:45:38.278Z,28
2016-08-18T09:46:38.237Z,24
2016-08-18T09:47:38.236Z,20
2016-08-18T09:48:38.269Z,20
2016-08-18T09:49:38.263Z,24
2016-08-18T09:50:38.278Z,28
2016-08-18T09:51:38.285Z,36
2016-08-18T09:52:38.274Z,36
2016-08-18T09:53:38.292Z,40
2016-08-18T09:54:38.307Z,40
2016-08-18T09:55:38.284Z,40
2016-08-18T09:56:38.309Z,40
2016-08-18T09:57:38.344Z,36
2016-08-18T09:58:38.325Z,36
2016-08-18T09:59:38.327Z,36
2016-08-18T10:00:38.366Z,48
2016-08-18T10:01:38.488Z,48
2016-08-18T10:02:39.082Z,44
2016-08-18T10:03:38.365Z,44
2016-08-18T10:04:38.560Z,44
2016-08-18T10:05:38.393Z,44
2016-08-18T10:06:38.516Z,44
2016-08-18T10:07:38.394Z,52
2016-08-18T10:08:38.393Z,32
2016-08-18T10:09:38.406Z,52
2016-08-18T10:10:38.425Z,36
2016-08-18T10:11:38.467Z,56
2016-08-18T10:12:38.447Z,52
2016-08-18T10:13:38.464Z,60
2016-08-18T10:14:38.495Z,52
2016-08-18T10:15:38.652Z,48
2016-08-18T10:16:38.501Z,44
2016-08-18T10:17:38.463Z,40
2016-08-18T10:18:38.504Z,32
2016-08-18T10:19:38.513Z,32
2016-08-18T10:20:38.514Z,28
2016-08-18T10:21:38.525Z,28
2016-08-18T10:22:38.519Z,24
2016-08-18T10:23:38.553Z,20
2016-08-18T10:24:38.536Z,20
2016-08-18T10:25:39.289Z,16
2016-08-18T10:26:38.551Z,16
2016-08-18T10:27:38.580Z,20
2016-08-18T10:28:38.595Z,20
2016-08-18T10:29:39.266Z,24
2016-08-18T10:30:38.576Z,20
2016-08-18T10:31:38.602Z,48
2016-08-18T10:32:39.317Z,52
2016-08-18T10:33:38.623Z,52
2016-08-18T10:34:38.631Z,56
2016-08-18T10:35:40.822Z,56
2016-08-18T10:36:38.649Z,56
2016-08-18T10:37:38.650Z,56
2016-08-18T10:38:38.662Z,52
2016-08-18T10:39:38.668Z,56
2016-08-18T10:40:38.688Z,48
2016-08-18T10:41:38.689Z,52
2016-08-18T10:42:38.675Z,52
2016-08-18T10:43:38.705Z,60
2016-08-18T10:44:38.698Z,60
2016-08-18T10:45:38.715Z,60
2016-08-18T10:46:38.745Z,64
2016-08-18T10:47:38.742Z,60
2016-08-18T10:48:38.724Z,36
2016-08-18T10:49:38.770Z,32
2016-08-18T10:50:38.791Z,56
2016-08-18T10:51:38.796Z,36
2016-08-18T10:52:38.776Z,48
2016-08-18T10:53:38.789Z,44
2016-08-18T10:54:39.520Z,60
2016-08-18T10:55:38.831Z,68
2016-08-18T10:56:38.822Z,68
2016-08-18T10:57:38.817Z,64
2016-08-18T10:58:38.835Z,56
2016-08-18T10:59:38.854Z,28
2016-08-18T11:00:38.858Z,48
2016-08-18T11:01:38.885Z,56
2016-08-18T11:02:38.899Z,56
2016-08-18T11:03:38.873Z,56
2016-08-18T11:04:39.562Z,52
2016-08-18T11:05:38.905Z,52
2016-08-18T11:06:38.904Z,24
2016-08-18T11:07:38.886Z,20
2016-08-18T11:08:38.925Z,16
2016-08-18T11:09:38.925Z,20
2016-08-18T11:10:38.967Z,20
2016-08-18T11:11:38.933Z,16
2016-08-18T11:12:38.978Z,16
2016-08-18T11:13:38.974Z,16
2016-08-18T11:14:38.990Z,16
2016-08-18T11:15:38.958Z,16
2016-08-18T11:16:38.967Z,16
2016-08-18T11:17:38.999Z,12
2016-08-18T11:18:39.021Z,12
2016-08-18T11:19:39.727Z,8
2016-08-18T11:20:39.013Z,8
2016-08-18T11:21:39.056Z,8
2016-08-18T11:22:39.049Z,8
2016-08-18T11:23:39.043Z,8
2016-08-18T11:24:39.112Z,8
2016-08-18T11:25:39.060Z,12
2016-08-18T11:26:39.059Z,12
2016-08-18T11:27:39.062Z,8
2016-08-18T11:28:39.095Z,8
2016-08-18T11:29:39.118Z,8
2016-08-18T11:30:39.099Z,12
2016-08-18T11:31:39.128Z,12
2016-08-18T11:32:39.134Z,12
2016-08-18T11:33:39.156Z,8
2016-08-18T11:34:39.169Z,12
2016-08-18T11:35:39.342Z,12
2016-08-18T11:36:39.173Z,12
2016-08-18T11:37:39.192Z,12
2016-08-18T11:38:39.217Z,12
2016-08-18T11:39:39.450Z,8
2016-08-18T11:40:39.231Z,8
2016-08-18T11:41:39.206Z,8
2016-08-18T11:42:39.237Z,8
2016-08-18T11:43:39.240Z,8
2016-08-18T11:44:39.959Z,8
2016-08-18T11:45:39.244Z,8
2016-08-18T11:46:39.278Z,4
2016-08-18T11:47:39.246Z,4
2016-08-18T11:48:39.354Z,4
2016-08-18T11:49:40.035Z,8
2016-08-18T11:50:39.990Z,12
2016-08-18T11:51:39.329Z,12
2016-08-18T11:52:39.309Z,12
2016-08-18T11:53:39.317Z,12
2016-08-18T11:54:39.326Z,16
2016-08-18T11:55:39.332Z,12
2016-08-18T11:56:39.335Z,12
2016-08-18T12:12:05.889Z,8
2016-08-18T12:13:05.934Z,8
2016-08-18T12:14:06.008Z,8
2016-08-18T12:15:06.519Z,8
2016-08-18T12:16:06.792Z,8
2016-08-18T12:17:06.555Z,4
2016-08-18T12:18:06.818Z,8
2016-08-18T12:19:06.554Z,4
2016-08-18T12:20:06.669Z,4
2016-08-18T12:21:06.706Z,4
2016-08-18T12:22:06.590Z,4
2016-08-18T12:23:06.614Z,4
2016-08-18T12:24:06.595Z,8
2016-08-18T12:25:06.604Z,8
2016-08-18T12:26:07.004Z,8
2016-08-18T12:27:06.603Z,8
2016-08-18T12:28:06.806Z,8
2016-08-18T12:29:06.651Z,12
2016-08-18T12:30:06.659Z,12
2016-08-18T12:31:06.639Z,12
2016-08-18T12:32:06.663Z,16
2016-08-18T12:33:06.672Z,16
2016-08-18T12:34:06.702Z,20
2016-08-18T12:35:06.864Z,24
2016-08-18T12:36:06.691Z,28
2016-08-18T12:37:06.731Z,32
2016-08-18T12:38:06.691Z,40
2016-08-18T12:39:06.871Z,44
2016-08-18T12:40:06.727Z,48
2016-08-18T12:41:06.755Z,52
2016-08-18T12:42:06.740Z,56
2016-08-18T12:43:06.759Z,60
2016-08-18T12:44:06.830Z,60
2016-08-18T12:45:06.764Z,64
2016-08-18T12:46:07.004Z,60
2016-08-18T12:47:06.826Z,60
2016-08-18T12:48:06.831Z,64
2016-08-18T12:49:06.860Z,60
2016-08-18T12:50:06.816Z,60
2016-08-18T12:51:06.815Z,56
2016-08-18T12:52:06.817Z,56
2016-08-18T12:53:06.848Z,56
2016-08-18T12:54:06.845Z,60
2016-08-18T12:55:06.842Z,56
2016-08-18T12:56:06.859Z,60
2016-08-18T12:57:06.873Z,64
2016-08-18T12:58:06.894Z,64
2016-08-18T12:59:06.904Z,64
2016-08-18T13:00:06.889Z,64
2016-08-18T13:01:06.909Z,64
2016-08-18T13:02:06.906Z,64
2016-08-18T13:03:06.950Z,60
2016-08-18T13:04:06.922Z,60
2016-08-18T13:05:06.954Z,56
2016-08-18T13:06:06.957Z,56
2016-08-18T13:07:06.962Z,60
2016-08-18T13:08:06.977Z,56
2016-08-18T13:09:06.989Z,64
2016-08-18T13:10:06.967Z,60
2016-08-18T13:11:07.007Z,60
2016-08-18T13:12:06.998Z,60
2016-08-18T13:13:07.003Z,64
2016-08-18T13:14:07.039Z,60
2016-08-18T13:15:07.047Z,60
2016-08-18T13:16:07.041Z,60
2016-08-18T13:17:07.057Z,56
2016-08-18T13:18:07.054Z,56
2016-08-18T13:19:07.052Z,56
2016-08-18T13:20:07.090Z,56
2016-08-18T13:21:07.097Z,56
2016-08-18T13:22:07.093Z,56
2016-08-18T13:23:07.109Z,52
2016-08-18T13:24:07.139Z,52
2016-08-18T13:25:07.129Z,44
2016-08-18T13:26:07.117Z,44
2016-08-18T13:27:07.119Z,40
2016-08-18T13:28:07.146Z,44
2016-08-18T13:29:07.144Z,44
2016-08-18T13:30:07.151Z,48
2016-08-18T13:31:07.148Z,48
2016-08-18T13:32:07.160Z,52
2016-08-18T13:33:07.190Z,48
2016-08-18T13:34:07.208Z,48
2016-08-18T13:35:07.192Z,48
2016-08-18T13:36:07.222Z,48
2016-08-18T13:37:07.230Z,52
2016-08-18T13:38:07.240Z,52
2016-08-18T13:39:07.229Z,52
2016-08-18T13:40:07.248Z,44
2016-08-18T13:41:07.280Z,44
2016-08-18T13:42:07.268Z,48
2016-08-18T13:43:07.279Z,48
2016-08-18T13:44:07.313Z,48
2016-08-18T13:45:07.299Z,52
2016-08-18T13:46:07.349Z,56
2016-08-18T13:47:07.325Z,40
2016-08-18T13:48:07.318Z,56
2016-08-18T13:49:07.335Z,44
2016-08-18T13:50:07.335Z,52
2016-08-18T13:51:07.339Z,48
2016-08-18T13:52:07.355Z,56
2016-08-18T13:53:07.373Z,60
2016-08-18T13:54:07.399Z,48
2016-08-18T13:55:07.390Z,40
2016-08-18T13:56:07.369Z,36
2016-08-18T13:57:08.124Z,36
2016-08-18T13:58:07.404Z,36
2016-08-18T13:59:07.409Z,40
2016-08-18T14:00:07.438Z,44
2016-08-18T14:01:07.437Z,40
2016-08-18T14:02:07.446Z,40
2016-08-18T14:03:07.464Z,32
2016-08-18T14:04:07.476Z,32
2016-08-18T14:05:07.485Z,32
2016-08-18T14:06:07.469Z,32
2016-08-18T14:07:07.478Z,28
2016-08-18T14:08:07.484Z,32
2016-08-18T14:09:07.514Z,24
2016-08-18T14:10:07.524Z,24
2016-08-18T14:11:07.517Z,20
2016-08-18T14:12:07.543Z,20
2016-08-18T14:13:07.551Z,20
2016-08-18T14:14:07.567Z,20
2016-08-18T14:15:07.580Z,20
2016-08-18T14:16:07.554Z,16
2016-08-18T14:17:07.577Z,16
2016-08-18T14:18:07.576Z,16
2016-08-18T14:19:07.595Z,12
2016-08-18T14:20:07.633Z,12
2016-08-18T14:21:07.646Z,12
2016-08-18T14:22:07.614Z,16
2016-08-18T14:23:07.644Z,16
2016-08-18T14:24:07.638Z,16
2016-08-18T14:25:07.660Z,16
2016-08-18T14:26:07.672Z,16
2016-08-18T14:27:07.686Z,16
2016-08-18T14:28:07.687Z,12
2016-08-18T14:29:07.690Z,16
2016-08-18T14:30:07.704Z,16
2016-08-18T14:31:07.721Z,12
2016-08-18T14:32:07.742Z,12
2016-08-18T14:33:07.722Z,12
2016-08-18T14:34:07.735Z,12
2016-08-18T14:35:08.462Z,8
2016-08-18T14:36:07.749Z,8
2016-08-18T14:37:07.794Z,8
2016-08-18T14:38:07.787Z,4
2016-08-18T14:39:07.764Z,8
2016-08-18T14:40:07.828Z,4
2016-08-18T14:41:07.805Z,4
2016-08-18T14:42:07.818Z,4
2016-08-18T14:43:07.806Z,4
2016-08-18T14:44:07.829Z,0